| |
Missouri Department of Transportation

Social Media Facebook Twitter Flickr Blog YouTube RSS

Current AWOS Information

 
AWOS Home - General Info for all Airports
Current AWOS for all Airports - Current METAR for all Airports
Glossary - Disclaimer - Other Links


MARSHALL--MARSHALL MEMORIAL MUNICIPAL--KMHL
 
Recent AWOS History
 
09/01/14     06:42 AM CDT      11:42 GMT
Air Temperature 68°F (20°C ) 1st Cloud Layer Scattered at 12,000 feet
Dew Point 67°F (19°C) 2nd Cloud Layer  
Barometric Pressure 29.72 in Hg. 3rd Cloud Layer  
Wind Speed 19 mph (17 knots) Density Altitude 1800 feet
Peak Wind Gusts 31 mph (28 knots) Variable Wind Directions  
Wind Direction Quadrant(140°) Variable Visibility  
Visibility 10 statute miles  

Thunderstorm and Precipitation Identification: 
Thunderstorm Remarks:  Lightning Distant South-East And South

Current METAR Record: METAR KMHL 011149Z AUTO 12013G22KT 10SM SCT110 20/19 A2969 RMK AO2 LTG DSNT SE THRU SW P0001

 

 

 

About Us
How Do I...
Contact Us
Missouri Department of Transportation
Central Office
105 W. Capitol Avenue
Jefferson City, MO 65102
1-888-ASK-MODOT (275-6636)
1-866-831-6277 (Motor Carrier Services)
Drivers License Offices
horz_bar
| | |
Missouri State Government
© 2013 Missouri Department of Transportation. All Rights Reserved.   Privacy Policy.
 
 
 
 
RSS FeedYoutubeBlogFlickrTwitter Facebook